Latest Weather Observations for Bundaberg

IDQ60801

Issued at 8:01 pm EST Wednesday 5 August 2015 (issued every 30 minutes, with the page automatically refreshed every 10 minutes)

About weather observations | Map of weather stations | Latest weather observations for QLD | Other Formats
Station Details ID: 039128 Name: BUNDABERG AERO Lat: -24.91 Lon: 152.32 Height: 30.82 m
Data from the previous 72 hours. | See also: Recent months at Bundaberg
Date/Time
EST
Temp
°C
App
Temp
°C
Dew
Point
Rel
Hum
%
Delta-T
°C
Wind Press
QNH
hPa
Press
MSL
hPa
Rain
since 9 am
mm
Dir
 
Spd
km/h
Gust
km/h
Spd
kts
Gust
kts
05/08:00pm 14.1 9.5 -1.1 35 6.2 SW 13 19 7 10 1016.6 1016.5 0.0
05/07:30pm 15.0 10.0 -1.1 33 6.6 SW 15 22 8 12 1016.2 1016.1 0.0
05/07:00pm 15.2 10.6 -0.9 33 6.7 SW 13 20 7 11 1015.9 1015.8 0.0
05/06:30pm 15.6 11.4 -1.0 32 6.9 SW 11 17 6 9 1015.7 1015.6 0.0
05/06:00pm 15.8 11.7 -0.4 33 6.8 WSW 11 17 6 9 1015.3 1015.2 0.0
05/05:30pm 17.0 12.4 -0.7 30 7.5 SW 13 17 7 9 1015.0 1014.9 0.0
05/05:00pm 18.4 13.1 -0.9 27 8.3 SW 17 24 9 13 1014.8 1014.7 0.0
05/04:30pm 19.3 13.9 -1.2 25 8.8 SW 17 28 9 15 1014.4 1014.3 0.0
05/04:00pm 19.5 12.7 -1.6 24 9.0 SW 24 32 13 17 1014.3 1014.2 0.0
05/03:30pm 19.7 12.9 -2.0 23 9.2 SW 24 32 13 17 1014.2 1014.1 0.0
05/03:00pm 19.6 12.8 -1.5 24 9.0 SW 24 37 13 20 1014.0 1013.9 0.0
05/02:30pm 19.7 13.4 -0.9 25 8.9 SW 22 33 12 18 1014.1 1014.0 0.0
05/02:00pm 19.7 13.4 -0.9 25 8.9 SW 22 33 12 18 1014.5 1014.4 0.0
05/01:30pm 18.8 12.4 -1.6 25 8.6 SW 22 35 12 19 1014.9 1014.8 0.0
05/01:00pm 18.3 12.0 -1.0 27 8.2 WSW 22 35 12 19 1015.4 1015.3 0.0
05/12:30pm 17.7 11.5 -0.5 29 7.8 WSW 22 32 12 17 1016.0 1015.9 0.0
05/12:00pm 17.5 10.5 -0.2 30 7.6 SW 26 37 14 20 1016.6 1016.5 0.0
05/11:30am 16.6 10.4 -0.1 32 7.1 SW 22 35 12 19 1017.1 1017.0 0.0
05/11:00am 15.5 8.5 -0.3 34 6.7 WSW 26 37 14 20 1017.6 1017.5 0.0
05/10:30am 15.1 8.6 0.2 36 6.3 SW 24 37 13 20 1018.1 1018.0 0.0
05/10:00am 14.5 8.0 0.0 37 6.1 SW 24 39 13 21 1018.7 1018.6 0.0
05/09:30am 13.7 7.6 0.7 41 5.5 SW 22 35 12 19 1018.9 1018.8 0.0
05/09:00am 13.0 6.2 1.0 44 5.1 SW 26 39 14 21 1019.0 1018.9 0.0
05/08:30am 11.7 5.7 1.1 48 4.4 SW 22 35 12 19 1019.1 1019.1 0.0
05/08:00am 10.6 5.1 1.7 54 3.7 SW 20 28 11 15 1018.8 1018.7 0.0
05/07:30am 9.7 4.8 1.8 58 3.3 SW 17 28 9 15 1018.6 1018.5 0.0
05/07:00am 8.6 4.5 2.0 63 2.7 SW 13 19 7 10 1018.5 1018.4 0.0
05/06:30am 7.9 3.8 2.0 66 2.4 WSW 13 19 7 10 1018.3 1018.2 0.0
05/06:00am 7.6 3.8 1.9 67 2.3 SW 11 15 6 8 1018.1 1018.0 0.0
05/05:30am 8.0 3.8 1.8 65 2.5 SW 13 17 7 9 1017.8 1017.7 0.0
05/05:00am 9.3 4.0 1.9 60 3.1 SW 19 26 10 14 1017.8 1017.7 0.0
05/04:30am 9.9 5.0 1.8 57 3.4 SW 17 28 9 15 1017.8 1017.7 0.0
05/04:00am 10.3 5.0 1.9 56 3.5 SW 19 28 10 15 1017.6 1017.5 0.0
05/03:30am 10.5 5.2 2.1 56 3.6 SW 19 28 10 15 1017.6 1017.5 0.0
05/03:00am 10.9 5.7 2.5 56 3.6 SW 19 24 10 13 1017.6 1017.5 0.0
05/02:30am 11.3 6.6 2.9 56 3.7 SW 17 28 9 15 1017.6 1017.5 0.0
05/02:00am 11.6 6.5 2.9 55 3.8 SW 19 26 10 14 1017.7 1017.6 0.0
05/01:30am 11.7 6.9 2.7 54 3.9 SW 17 20 9 11 1017.6 1017.5 0.0
05/01:00am 12.3 7.9 2.7 52 4.2 SW 15 24 8 13 1017.9 1017.8 0.0
05/12:30am 12.4 8.4 2.6 51 4.3 SW 13 19 7 10 1017.7 1017.6 0.0
05/12:00am 12.6 8.7 3.3 53 4.1 SW 13 19 7 10 1017.8 1017.7 0.0
 
Date/Time
EST
Temp
°C
App
Temp
°C
Dew
Point
Rel
Hum
%
Delta-T
°C
Wind Press
QNH
hPa
Press
MSL
hPa
Rain
since 9 am
mm
Dir
 
Spd
km/h
Gust
km/h
Spd
kts
Gust
kts
04/11:30pm 13.3 9.6 4.7 56 4.0 SW 13 19 7 10 1017.7 1017.6 0.0
04/11:00pm 13.5 10.8 8.8 73 2.4 SW 13 17 7 9 1017.7 1017.6 0.0
04/10:30pm 13.8 12.9 12.7 93 0.6 SW 9 11 5 6 1017.6 1017.5 0.0
04/10:00pm 12.5 11.7 11.6 94 0.5 SW 7 11 4 6 1017.6 1017.5 0.0
04/09:30pm 12.8 12.1 11.9 94 0.5 SSW 7 11 4 6 1017.6 1017.5 0.0
04/09:00pm 12.4 12.3 10.8 90 0.8 SW 2 7 1 4 1017.4 1017.3 0.0
04/08:30pm 13.2 12.6 11.8 91 0.7 SW 6 9 3 5 1017.4 1017.3 0.0
04/08:00pm 13.8 14.5 12.2 90 0.9 CALM 0 0 0 0 1017.3 1017.2 0.0
04/07:30pm 14.6 15.4 12.6 88 1.1 CALM 0 0 0 0 1017.0 1016.9 0.0
04/07:00pm 15.0 15.8 12.5 85 1.4 CALM 0 0 0 0 1016.9 1016.8 0.0
04/06:30pm 15.9 16.8 12.8 82 1.7 CALM 0 0 0 0 1016.7 1016.6 0.0
04/06:00pm 16.4 17.0 12.0 75 2.4 CALM 0 0 0 0 1016.4 1016.3 0.0
04/05:30pm 18.0 18.1 12.7 71 3.0 ENE 4 7 2 4 1016.2 1016.1 0.0
04/05:00pm 18.9 16.7 12.2 65 3.7 E 15 19 8 10 1016.1 1016.0 0.0
04/04:30pm 20.0 18.3 11.2 57 4.8 ESE 11 19 6 10 1015.9 1015.8 0.0
04/04:00pm 21.3 19.2 9.9 48 6.2 S 11 15 6 8 1015.8 1015.7 0.0
04/03:30pm 21.8 20.1 10.0 47 6.4 SW 9 17 5 9 1015.8 1015.7 0.0
04/03:00pm 21.3 20.2 10.5 50 5.9 SW 7 13 4 7 1015.8 1015.7 0.0
04/02:30pm 20.2 17.5 10.3 53 5.4 W 15 20 8 11 1016.3 1016.2 0.0
04/02:00pm 20.3 19.2 11.8 58 4.7 WSW 9 15 5 8 1016.5 1016.4 0.0
04/01:30pm 19.2 17.0 10.7 58 4.6 SW 13 17 7 9 1016.9 1016.8 0.0
04/01:00pm 18.0 15.9 11.1 64 3.7 WSW 13 20 7 11 1017.4 1017.3 0.0
04/12:30pm 15.6 13.0 10.8 73 2.6 WSW 15 20 8 11 1017.9 1017.8 0.0
04/12:00pm 13.7 10.2 10.1 79 1.9 W 19 22 10 12 1018.4 1018.3 0.0
04/11:30am 12.2 9.0 9.9 86 1.2 SW 17 24 9 13 1019.1 1019.1 0.0
04/11:00am 12.5 8.3 8.4 76 2.0 WSW 20 28 11 15 1019.6 1019.6 0.0
04/10:30am 13.9 9.9 8.1 68 2.9 SW 19 28 10 15 1019.6 1019.6 0.0
04/10:00am 15.5 11.2 7.0 57 4.2 SW 19 26 10 14 1019.5 1019.5 0.0
04/09:30am 16.5 12.4 6.3 51 5.0 SW 17 28 9 15 1020.0 1020.0 0.0
04/09:00am 15.5 10.7 5.7 52 4.7 SW 20 28 11 15 1019.8 1019.8 0.0
04/08:30am 16.6 12.2 6.7 52 4.9 SW 19 24 10 13 1019.6 1019.6 0.0
04/08:00am 14.9 10.9 6.5 57 4.1 SW 17 24 9 13 1019.6 1019.6 0.0
04/07:30am 13.8 11.0 6.9 63 3.3 SW 11 15 6 8 1019.2 1019.2 0.0
04/07:00am 12.3 9.8 6.4 67 2.8 SW 9 9 5 5 1018.7 1018.6 0.0
04/06:30am 12.1 9.1 5.9 66 2.9 SW 11 15 6 8 1018.4 1018.3 0.0
04/06:00am 12.4 9.4 6.2 66 2.9 SW 11 15 6 8 1018.1 1018.0 0.0
04/05:30am 11.7 9.3 6.8 72 2.3 WSW 9 11 5 6 1017.9 1017.8 0.0
04/05:00am 11.9 11.2 7.0 72 2.3 CALM 0 0 0 0 1017.2 1017.1 0.0
04/04:30am 13.2 11.3 6.5 64 3.2 SW 6 7 3 4 1017.0 1016.9 0.0
04/04:00am 13.6 11.2 6.9 64 3.2 SW 9 11 5 6 1016.8 1016.7 0.0
04/03:30am 13.9 11.2 7.4 65 3.2 SW 11 13 6 7 1016.9 1016.8 0.0
04/03:00am 14.4 11.9 8.4 67 3.0 WSW 11 17 6 9 1016.9 1016.8 0.0
04/02:30am 14.5 11.8 9.1 70 2.8 WSW 13 20 7 11 1016.9 1016.8 0.0
04/02:00am 14.7 12.8 11.7 82 1.6 WSW 13 19 7 10 1017.1 1017.0 0.0
04/01:30am 14.6 13.3 13.8 95 0.4 W 13 15 7 8 1017.3 1017.2 0.0
04/01:00am 14.7 14.2 13.9 95 0.4 W 9 11 5 6 1017.2 1017.1 0.0
04/12:30am 14.5 13.9 13.5 94 0.6 NNW 9 13 5 7 1017.3 1017.2 0.0
04/12:00am 15.4 15.4 14.3 93 0.6 W 7 11 4 6 1017.4 1017.3 0.0
 
Date/Time
EST
Temp
°C
App
Temp
°C
Dew
Point
Rel
Hum
%
Delta-T
°C
Wind Press
QNH
hPa
Press
MSL
hPa
Rain
since 9 am
mm
Dir
 
Spd
km/h
Gust
km/h
Spd
kts
Gust
kts
03/11:30pm 16.4 16.6 15.8 96 0.4 WSW 9 13 5 7 1017.5 1017.4 0.0
03/11:00pm 16.2 16.0 15.6 96 0.3 NNW 11 13 6 7 1017.1 1017.0 0.0
03/10:30pm 16.1 15.7 15.3 95 0.5 NNW 11 13 6 7 1017.1 1017.0 0.0
03/10:00pm 16.6 16.8 15.8 95 0.5 NNW 9 13 5 7 1017.3 1017.2 0.0
03/09:30pm 16.8 16.6 15.7 93 0.6 NNW 11 13 6 7 1017.4 1017.3 0.0
03/09:00pm 17.6 17.2 16.3 92 0.8 N 13 15 7 8 1017.5 1017.4 0.0
03/08:30pm 17.9 17.7 16.6 92 0.8 NNW 13 15 7 8 1017.5 1017.4 0.0
03/08:00pm 18.1 17.4 16.4 90 1.0 N 15 19 8 10 1017.4 1017.3 0.0
03/07:30pm 18.8 18.2 16.6 87 1.3 N 15 19 8 10 1017.4 1017.3 0.0
03/07:00pm 18.9 19.0 16.5 86 1.4 N 11 17 6 9 1017.2 1017.1 0.0
03/06:30pm 19.3 18.6 16.3 83 1.8 N 15 20 8 11 1017.1 1017.0 0.0
03/06:00pm 19.6 19.2 16.1 80 2.1 N 13 17 7 9 1016.8 1016.7 0.0
03/05:30pm 20.5 19.2 15.9 75 2.8 N 17 22 9 12 1016.6 1016.5 0.0
03/05:00pm 21.4 19.1 14.6 65 4.0 N 20 30 11 16 1016.4 1016.3 0.0
03/04:30pm 22.3 18.5 13.6 58 5.0 N 26 30 14 16 1016.3 1016.2 0.0
03/04:00pm 23.1 19.0 11.5 48 6.5 N 24 32 13 17 1016.2 1016.1 0.0
03/03:30pm 24.5 20.6 12.1 46 7.1 N 24 32 13 17 1016.1 1016.0 0.0
03/03:00pm 24.3 20.5 12.3 47 6.9 N 24 37 13 20 1016.2 1016.1 0.0
03/02:30pm 24.6 20.4 12.5 46 7.0 N 26 32 14 17 1016.3 1016.2 0.0
03/02:00pm 24.9 21.2 12.8 47 7.0 N 24 33 13 18 1016.5 1016.4 0.0
03/01:30pm 25.1 21.8 12.7 46 7.2 N 22 28 12 15 1016.8 1016.7 0.0
03/01:00pm 25.7 22.6 12.2 43 7.8 N 20 28 11 15 1017.1 1017.0 0.0
03/12:30pm 25.3 21.9 12.5 45 7.4 N 22 30 12 16 1017.7 1017.6 0.0
03/12:00pm 24.9 21.8 12.2 45 7.3 N 20 28 11 15 1018.3 1018.2 0.0
03/11:30am 24.7 22.0 13.0 48 6.8 N 19 26 10 14 1018.9 1018.8 0.0
03/11:00am 24.3 21.9 13.8 52 6.1 NNW 19 24 10 13 1019.4 1019.4 0.0
03/10:30am 23.8 20.9 13.9 54 5.8 NNW 22 28 12 15 1020.1 1020.1 0.0
03/10:00am 23.0 21.1 15.1 61 4.7 NW 19 26 10 14 1020.5 1020.5 0.0
03/09:30am 21.7 21.0 15.5 68 3.7 NW 13 15 7 8 1020.8 1020.8 0.0
03/09:00am 19.3 18.5 15.2 77 2.4 WNW 13 17 7 9 1020.7 1020.7 0.0
03/08:30am 17.0 16.8 14.6 86 1.4 WNW 9 11 5 6 1020.1 1020.1 0.0
03/08:00am 15.4 15.7 14.6 95 0.5 WSW 6 7 3 4 1020.2 1020.2 0.0
03/07:56am 15.1 15.8 14.5 96 0.3 WSW 4 7 2 4 1020.2 1020.2 0.0
03/07:30am 13.6 14.6 13.3 98 0.2 CALM 0 0 0 0 1020.0 1020.0 0.0
03/07:21am 12.4 13.0 11.9 97 0.3 CALM 0 0 0 0 1020.0 1020.0 0.0
03/07:17am 11.7 12.1 11.1 96 0.3 CALM 0 0 0 0 1020.0 1020.0 0.0
03/07:00am 10.5 10.5 9.9 96 0.3 CALM 0 0 0 0 1019.9 1019.9 0.0
03/06:56am 10.2 10.1 9.4 95 0.4 CALM 0 0 0 0 1019.8 1019.8 0.0
03/06:45am 10.1 10.0 9.5 96 0.3 CALM 0 0 0 0 1019.9 1019.9 0.0
03/06:30am 9.9 9.8 9.3 96 0.3 CALM 0 0 0 0 1019.9 1019.9 0.0
03/06:25am 10.3 10.3 9.7 96 0.3 CALM 0 0 0 0 1019.9 1019.9 0.0
03/06:23am 10.3 10.3 9.7 96 0.3 CALM 0 0 0 0 1019.8 1019.8 0.0
03/06:04am 10.1 10.0 9.3 95 0.4 CALM 0 0 0 0 1019.8 1019.8 0.0
03/06:00am 10.2 10.1 9.4 95 0.4 CALM 0 0 0 0 1019.8 1019.8 0.0
03/05:43am 10.2 10.1 9.4 95 0.4 CALM 0 0 0 0 1019.6 1019.6 0.0
03/05:37am 10.3 10.2 9.5 95 0.4 CALM 0 0 0 0 1019.5 1019.5 0.0
03/05:30am 10.1 10.0 9.3 95 0.4 CALM 0 0 0 0 1019.5 1019.5 0.0
03/05:29am 10.1 10.0 9.3 95 0.4 CALM 0 0 0 0 1019.5 1019.5 0.0
03/05:15am 9.9 9.7 9.0 94 0.4 CALM 0 0 0 0 1019.4 1019.4 0.0
03/05:11am 10.0 9.8 9.1 94 0.4 CALM 0 0 0 0 1019.3 1019.3 0.0
03/05:05am 10.1 9.9 9.2 94 0.4 CALM 0 0 0 0 1019.3 1019.3 0.0
03/05:00am 10.1 10.0 9.3 95 0.4 CALM 0 0 0 0 1019.3 1019.3 0.0
03/04:30am 10.3 10.2 9.5 95 0.4 CALM 0 0 0 0 1019.2 1019.2 0.0
03/04:00am 10.3 10.2 9.4 94 0.4 CALM 0 0 0 0 1019.2 1019.2 0.0
03/03:30am 10.3 10.2 9.4 94 0.4 CALM 0 0 0 0 1019.4 1019.4 0.0
03/03:00am 10.8 10.8 9.9 94 0.5 CALM 0 0 0 0 1019.5 1019.5 0.0
03/02:30am 11.1 11.2 10.2 94 0.5 CALM 0 0 0 0 1019.4 1019.4 0.0
03/02:00am 11.1 11.2 10.0 93 0.6 CALM 0 0 0 0 1019.6 1019.6 0.0
03/01:30am 11.4 11.5 10.3 93 0.6 CALM 0 0 0 0 1019.8 1019.8 0.0
03/01:21am 11.5 11.6 10.2 92 0.7 CALM 0 0 0 0 1019.9 1019.9 0.0
03/01:18am 11.4 11.5 10.1 92 0.7 CALM 0 0 0 0 1019.9 1019.9 0.0
03/01:00am 11.2 11.2 9.9 92 0.7 CALM 0 0 0 0 1020.1 1020.1 0.0
03/12:32am 11.4 11.5 10.1 92 0.7 CALM 0 0 0 0 1020.3 1020.3 0.0
03/12:30am 11.5 11.6 10.2 92 0.7 CALM 0 0 0 0 1020.4 1020.4 0.0
03/12:22am 11.8 12.0 10.5 92 0.7 CALM 0 0 0 0 1020.4 1020.4 0.0
03/12:00am 12.0 11.5 10.9 93 0.6 WSW 4 6 2 3 1020.5 1020.5 0.0
 
Date/Time
EST
Temp
°C
App
Temp
°C
Dew
Point
Rel
Hum
%
Delta-T
°C
Wind Press
QNH
hPa
Press
MSL
hPa
Rain
since 9 am
mm
Dir
 
Spd
km/h
Gust
km/h
Spd
kts
Gust
kts
02/11:52pm 11.7 11.1 10.3 91 0.7 WSW 4 6 2 3 1020.6 1020.6 0.0
02/11:30pm 11.6 10.5 10.0 90 0.8 WSW 6 7 3 4 1020.8 1020.8 0.0
02/11:00pm 12.9 13.5 12.0 94 0.5 CALM 0 11 0 6 1020.9 1020.9 0.0
02/10:51pm 13.7 14.6 12.9 95 0.4 CALM 0 0 0 0 1020.9 1020.9 0.0
02/10:33pm 13.5 14.2 12.2 92 0.7 CALM 0 0 0 0 1020.9 1020.9 0.0
02/10:30pm 13.6 14.3 12.3 92 0.7 CALM 0 0 0 0 1020.9 1020.9 0.0
02/10:00pm 14.8 15.8 13.2 90 0.9 CALM 0 0 0 0 1021.0 1021.0 0.0
02/09:30pm 16.0 16.3 14.4 90 0.9 NNE 6 7 3 4 1020.9 1020.9 0.0
02/09:00pm 15.9 15.7 13.6 86 1.3 NNE 7 9 4 5 1020.9 1020.9 0.0
02/08:30pm 16.6 16.2 14.2 86 1.4 N 9 11 5 6 1021.0 1021.0 0.0

Other Formats:

Comma delimited format used in spreadsheet applications
http://www.bom.gov.au/fwo/IDQ60801/IDQ60801.94387.axf

JavaScript Object Notation format (JSON) in row-major order
http://www.bom.gov.au/fwo/IDQ60801/IDQ60801.94387.json